To NAV CANADA Home Page Login to a new session Search on AWWS site Feedback and Comments Disclaimer Vers la page française équivalente Tips FAQ What's new on the site To the Forecasts and Observations / NOTAM section To "File a Flight Plan" website Publications and other links Update of the User's profile FIC Telephone Numbers My Weather Data Folder Route Weather Data Regional Weather Data Local Weather Data To the Forecasts and Observations / NOTAM section
Request Generated 04/28/2015 at 03:53:46 UTC . Weather information available at that time is displayed.

METAR/TAF

MONTREAL/MONTREAL INTL (MIRABEL)/QC    

METAR CYMX 280300Z 01007KT 350V050 25SM FEW055 SCT070 BKN100 12/03
A2985 RMK SC2AC2AC2 SLP109=
METAR CYMX 280200Z 02006KT 25SM SCT058 BKN080 12/03 A2984 RMK SC3AC4
SLP108=
METAR CYMX 280100Z 01005KT 350V050 25SM BKN058 OVC076 13/04 A2984 RMK
SC5AC3 SLP108=

TAF CYMX 272338Z 2800/2824 03005KT P6SM BKN050
FM280500 05005KT P6SM BKN025 TEMPO 2807/2812 OVC020
FM281500 35007KT P6SM BKN050
RMK NXT FCST BY 280600Z=
Your time UTC time
Weather data provided by Environment Canada and NAV CANADA